Flight Track Log - Related Links

Times and Time Zones

All times are in EDT time to prevent confusion due to time zone crossing. See the SWA788 flight status page for this flight to view local times or setup timezone preferences in your user account.

Time Position Orientation Groundspeed Altitude Reporting Facility
EDT Latitude Longitude Course Direction KTS MPH feet Rate Location/Type
Wed 09:10:21 AM 33.4333 -112.0000 90° East 163 188 1,700  Level Phoenix TRACON
Wed 09:11:03 AM 33.4333 -111.9500 90° East 176 203 3,000 2,294 Climbing Phoenix TRACON
Wed 09:12:03 AM 33.4333 -111.8667 40° Northeast 275 316 5,600 3,000 Climbing Phoenix TRACON
Wed 09:13:03 AM 33.5000 -111.8000 327° Northwest 308 354 9,000 3,231 Climbing Phoenix TRACON
Wed 09:15:31 AM 33.6692 -111.9344 318° Northwest 295 339 16,800 2,910 Climbing Albuquerque Center
Wed 09:17:31 AM 33.8014 -112.0767 316° Northwest 343 395 22,000 2,433 Climbing Albuquerque Center
Wed 09:18:31 AM 33.8831 -112.1714 317° Northwest 357 411 24,100 2,200 Climbing Albuquerque Center
Wed 09:19:31 AM 33.9489 -112.2453 319° Northwest 362 417 26,400 2,000 Climbing Albuquerque Center
Wed 09:20:31 AM 34.0389 -112.3408 333° Northwest 368 423 28,100 850 Climbing Albuquerque Center
Wed 09:21:31 AM 34.1244 -112.3936 330° Northwest 385 443 28,100  Level Albuquerque Center
Wed 09:22:31 AM 34.2278 -112.4650 335° Northwest 390 449 28,100  Level Albuquerque Center
Wed 09:23:31 AM 34.3275 -112.5217 333° Northwest 385 443 28,100  Level Albuquerque Center
Wed 09:24:31 AM 34.4250 -112.5831 332° Northwest 385 443 28,100  Level Albuquerque Center
Wed 09:25:31 AM 34.5225 -112.6447 309° West 385 443 28,100  Level Albuquerque Center
Wed 09:26:31 AM 34.5889 -112.7450 304° West 379 436 28,100  Level Albuquerque Center
Wed 09:27:31 AM 34.6489 -112.8525 305° West 374 430 28,100  Level Albuquerque Center
Wed 09:28:31 AM 34.7106 -112.9600 304° West 385 443 28,100  Level Albuquerque Center
Wed 09:30:21 AM 34.8197 -113.1558 304° West 394 453 28,100  Level Los Angeles Center
Wed 09:31:22 AM 34.8786 -113.2625 305° West 389 448 28,100  Level Los Angeles Center
Wed 09:32:21 AM 34.9394 -113.3694 297° West 384 442 28,100  Level Los Angeles Center
Wed 09:33:21 AM 34.9858 -113.4819 268° West 377 434 28,100  Level Los Angeles Center
Wed 09:34:21 AM 34.9822 -113.6139 278° West 371 427 28,100 -200 Level Los Angeles Center
Wed 09:35:21 AM 34.9972 -113.7378 327° Northwest 371 427 27,700 -750 Descending Los Angeles Center
Wed 09:36:21 AM 35.0842 -113.8064 329° Northwest 339 390 26,600 -1,050 Descending Los Angeles Center
Wed 09:37:21 AM 35.1731 -113.8725 331° Northwest 344 396 25,600 -1,041 Descending Los Angeles Center
Wed 09:38:22 AM 35.2619 -113.9336 322° Northwest 361 415 24,500 -1,388 Descending Los Angeles Center
Wed 09:39:22 AM 35.3383 -114.0078 325° Northwest 361 415 22,800 -2,269 Descending Los Angeles Center
Wed 09:40:21 AM 35.4208 -114.0797 320° Northwest 356 410 20,000 -2,067 Descending Los Angeles Center
Wed 09:41:21 AM 35.4908 -114.1519 323° Northwest 349 402 18,700 -1,450 Descending Los Angeles Center
Wed 09:42:21 AM 35.5608 -114.2167 325° Northwest 336 387 17,100 -1,750 Descending Los Angeles Center
Wed 09:43:21 AM 35.6264 -114.2739 322° Northwest 326 375 15,200 -2,227 Descending Los Angeles Center
Wed 09:43:58 AM 35.6814 -114.3264 323° Northwest 327 376 13,500 -2,354 Descending Los Angeles Center
Wed 09:44:40 AM 35.7300 -114.3711 333° Northwest 324 373 12,100 -1,071 Descending Los Angeles Center
Wed 09:45:22 AM 35.7742 -114.3983 339° North 321 369 12,000  Descending Los Angeles Center
Wed 09:46:21 AM 35.8561 -114.4378 339° North 316 364 12,100 -252 Climbing Los Angeles Center
Wed 09:47:21 AM 35.9381 -114.4769 340° North 311 358 11,500 -1,050 Descending Los Angeles Center
Wed 09:48:21 AM 36.0200 -114.5139 298° West 311 358 10,000 -750 Descending Los Angeles Center
Wed 09:49:21 AM 36.0542 -114.5928 279° West 288 331 10,000 -800 Level Los Angeles Center
Wed 09:50:21 AM 36.0658 -114.6800 276° West 246 283 8,400 -1,100 Descending Los Angeles Center
Wed 09:51:21 AM 36.0731 -114.7594 271° West 246 283 7,800 -942 Descending Los Angeles Center
Wed 09:52:22 AM 36.0739 -114.8442 271° West 241 277 6,500 -700 Descending Los Angeles Center
Wed 09:53:21 AM 36.0747 -114.9214 268° West 236 272 6,400 -807 Descending Los Angeles Center
Wed 09:54:21 AM 36.0731 -114.9856 267° West 213 245 4,900 -1,630 Descending Los Angeles Center
Wed 09:54:53 AM 36.0714 -115.0242 274° West 155 178 3,900 -1,290 Descending Los Angeles Center
Wed 09:55:54 AM 36.0739 -115.0678 271° West 120 138 2,900 -764 Descending Los Angeles Center
Wed 09:56:43 AM 36.0742 -115.1011 262° West 118 136 2,500 -483 Descending Los Angeles Center
Wed 09:57:21 AM 36.0722 -115.1192 276° West 130 150 2,200 -245 Descending Los Angeles Center
Wed 09:58:21 AM 36.0744 -115.1450 360° North 115 132 2,100 -50 Descending Los Angeles Center
Wed 09:59:21 AM 36.0767 -115.1450 282° West 55 63 2,100  Level Los Angeles Center
Wed 10:00:21 AM 36.0789 -115.1578 319° Northwest 25 29 2,100 267 Level Los Angeles Center
Wed 10:02:21 AM 36.0956 -115.1756 319° Northwest 25 29 2,900 400 Climbing Los Angeles Center

Login

Don't have an account? Register now (free) for customized features, flight alerts, and more!